Time;durP1;ratioP1;P1;durP2;ratioP2;P2;SDS_P1;SDS_P2;PMS_P1;PMS_P2;Temp;Humidity;BMP_temperature;BMP_pressure;BME280_temperature;BME280_humidity;BME280_pressure;Samples;Min_cycle;Max_cycle;Signal;HPM_P1;HPM_P2
2021/06/30 00:02:20;;;;;;;6.13;3.88;;;19.40;74.40;;;;;;5089955;28;20055;-72
2021/06/30 00:04:46;;;;;;;8.07;4.05;;;19.40;74.40;;;;;;5074743;28;20064;-73
2021/06/30 00:07:12;;;;;;;6.68;3.90;;;19.40;74.50;;;;;;5075794;28;20446;-74
2021/06/30 00:09:39;;;;;;;5.53;4.00;;;19.40;74.30;;;;;;5078017;28;20067;-72
2021/06/30 00:12:05;;;;;;;5.95;3.97;;;19.40;74.40;;;;;;5078942;28;20127;-73
2021/06/30 00:14:31;;;;;;;5.63;3.60;;;19.40;74.40;;;;;;5093232;28;20040;-72
2021/06/30 00:16:57;;;;;;;6.80;4.40;;;19.40;74.30;;;;;;5098416;28;20521;-72
2021/06/30 00:19:24;;;;;;;5.80;4.10;;;19.40;74.30;;;;;;5097121;28;20043;-72
2021/06/30 00:21:50;;;;;;;5.82;3.72;;;19.30;74.20;;;;;;5098465;28;20048;-73
2021/06/30 00:24:16;;;;;;;6.28;4.40;;;19.30;74.90;;;;;;5080944;28;20060;-73
2021/06/30 00:26:42;;;;;;;6.18;4.30;;;19.30;74.30;;;;;;5078006;28;20052;-73
2021/06/30 00:29:08;;;;;;;6.43;3.83;;;19.30;74.30;;;;;;5077846;28;20045;-72
2021/06/30 00:31:34;;;;;;;5.35;3.53;;;19.30;74.40;;;;;;5077967;28;20087;-73
2021/06/30 00:34:03;;;;;;;7.15;4.53;;;19.30;74.40;;;;;;5078626;28;20079;-73
2021/06/30 00:36:31;;;;;;;5.97;3.80;;;19.30;74.40;;;;;;5077887;28;20045;-72
2021/06/30 00:38:57;;;;;;;6.03;4.05;;;19.30;74.40;;;;;;5078256;28;20174;-73
2021/06/30 00:41:23;;;;;;;8.43;4.32;;;19.30;74.50;;;;;;5077720;28;20397;-72
2021/06/30 00:43:49;;;;;;;5.90;3.92;;;19.30;74.50;;;;;;5090404;28;20139;-73
2021/06/30 00:46:15;;;;;;;7.00;4.63;;;19.30;74.40;;;;;;5096716;28;20040;-72
2021/06/30 00:48:40;;;;;;;7.15;3.90;;;19.30;74.30;;;;;;5097937;28;20044;-73
2021/06/30 00:51:06;;;;;;;5.93;3.70;;;19.30;74.20;;;;;;5098119;28;20051;-74
2021/06/30 00:53:32;;;;;;;7.32;4.35;;;19.30;74.40;;;;;;5097773;28;20051;-73
2021/06/30 00:55:58;;;;;;;7.82;4.28;;;19.30;74.30;;;;;;5097781;28;20066;-72
2021/06/30 00:58:24;;;;;;;7.70;4.63;;;19.30;74.30;;;;;;5097882;28;20105;-73
2021/06/30 01:00:50;;;;;;;5.78;3.72;;;19.30;74.40;;;;;;5098037;28;20097;-73
2021/06/30 01:03:16;;;;;;;6.65;4.18;;;19.30;74.30;;;;;;5091191;28;20093;-73
2021/06/30 01:05:42;;;;;;;5.18;4.07;;;19.30;74.40;;;;;;5077655;28;20071;-72
2021/06/30 01:08:09;;;;;;;5.43;3.70;;;19.30;74.30;;;;;;5076973;28;20064;-73
2021/06/30 01:10:35;;;;;;;5.13;4.22;;;19.30;74.30;;;;;;5081420;28;20062;-72
2021/06/30 01:13:05;;;;;;;6.60;4.32;;;19.30;74.30;;;;;;5097178;28;20123;-73
2021/06/30 01:15:31;;;;;;;6.05;4.45;;;19.30;74.20;;;;;;5098141;28;20056;-72
2021/06/30 01:17:56;;;;;;;5.45;4.05;;;19.20;74.10;;;;;;5097502;28;20488;-72
2021/06/30 01:20:22;;;;;;;6.30;4.47;;;19.20;74.00;;;;;;5096015;28;20056;-72
2021/06/30 01:23:06;;;;;;;5.88;3.95;;;19.20;74.00;;;;;;5097081;28;20044;-72
2021/06/30 01:25:32;;;;;;;5.72;4.13;;;19.20;73.80;;;;;;5095593;28;20119;-73
2021/06/30 01:27:57;;;;;;;8.40;4.20;;;19.20;74.10;;;;;;5097339;28;20123;-73
2021/06/30 01:30:23;;;;;;;6.82;4.55;;;19.20;74.00;;;;;;5097067;28;20059;-73
2021/06/30 01:32:49;;;;;;;8.35;4.45;;;19.20;74.20;;;;;;5097567;28;20483;-73
2021/06/30 01:35:20;;;;;;;7.95;5.03;;;19.20;74.10;;;;;;5095301;28;20117;-72
2021/06/30 01:37:46;;;;;;;8.52;4.45;;;19.20;74.00;;;;;;5097050;28;20119;-72
2021/06/30 01:40:13;;;;;;;8.10;4.68;;;19.20;74.10;;;;;;5094534;28;20043;-73
2021/06/30 01:42:43;;;;;;;6.95;4.10;;;19.20;74.10;;;;;;5077359;28;20048;-72
2021/06/30 01:45:09;;;;;;;7.38;4.18;;;19.10;74.00;;;;;;5077351;28;20412;-72
2021/06/30 01:47:35;;;;;;;6.35;4.70;;;19.10;74.00;;;;;;5076346;28;20102;-72
2021/06/30 01:50:01;;;;;;;7.35;4.38;;;19.20;74.10;;;;;;5076625;28;20056;-73
2021/06/30 01:52:29;;;;;;;6.05;4.40;;;19.20;74.00;;;;;;5076477;28;20127;-73
2021/06/30 01:54:58;;;;;;;7.70;4.75;;;19.10;74.00;;;;;;5076284;28;20360;-72
2021/06/30 01:57:24;;;;;;;6.93;4.78;;;19.10;74.00;;;;;;5077088;28;20327;-72
2021/06/30 01:59:50;;;;;;;6.72;4.57;;;19.10;73.90;;;;;;5076417;28;20052;-73
2021/06/30 02:02:16;;;;;;;7.55;4.35;;;19.10;74.00;;;;;;5096038;28;20047;-72
2021/06/30 02:04:52;;;;;;;7.18;4.70;;;19.20;73.90;;;;;;5096842;28;20166;-72
2021/06/30 02:07:19;;;;;;;5.93;4.70;;;19.20;74.00;;;;;;5097173;28;20105;-73
2021/06/30 02:09:45;;;;;;;7.53;4.63;;;19.20;74.00;;;;;;5095783;28;20063;-73
2021/06/30 02:12:11;;;;;;;7.30;4.80;;;19.20;74.00;;;;;;5096607;28;20117;-73
2021/06/30 02:14:36;;;;;;;6.22;4.38;;;19.20;73.90;;;;;;5095961;28;20123;-73
2021/06/30 02:17:02;;;;;;;8.07;5.05;;;19.10;73.90;;;;;;5095894;28;20048;-73
2021/06/30 02:19:28;;;;;;;6.85;5.05;;;19.10;73.90;;;;;;5096095;28;20054;-73
2021/06/30 02:21:54;;;;;;;6.78;4.50;;;19.10;73.90;;;;;;5080959;28;20113;-73
2021/06/30 02:24:20;;;;;;;5.93;4.50;;;19.10;74.10;;;;;;5077142;28;20558;-73
2021/06/30 02:26:46;;;;;;;8.40;4.20;;;19.10;73.90;;;;;;5075746;28;20044;-73
2021/06/30 02:29:12;;;;;;;7.85;4.55;;;19.10;74.00;;;;;;5090704;28;20075;-74
2021/06/30 02:31:38;;;;;;;8.85;5.07;;;19.10;73.90;;;;;;5096323;28;20067;-73
2021/06/30 02:34:04;;;;;;;9.45;4.85;;;19.10;73.90;;;;;;5096074;28;20435;-73
2021/06/30 02:36:30;;;;;;;5.80;4.50;;;19.10;73.90;;;;;;5096064;28;20044;-74
2021/06/30 02:38:57;;;;;;;7.57;4.53;;;19.10;73.90;;;;;;5095862;28;20044;-73
2021/06/30 02:41:22;;;;;;;8.00;4.90;;;19.10;73.80;;;;;;5096194;28;20458;-72
2021/06/30 02:43:49;;;;;;;7.55;4.95;;;19.10;73.90;;;;;;5094028;28;20069;-73
2021/06/30 02:46:15;;;;;;;7.57;4.90;;;19.10;73.80;;;;;;5095686;28;20044;-73
2021/06/30 02:48:41;;;;;;;7.97;5.30;;;19.10;73.80;;;;;;5095638;28;20474;-73
2021/06/30 02:51:07;;;;;;;6.38;4.70;;;19.10;73.80;;;;;;5095336;28;20057;-72
2021/06/30 02:53:33;;;;;;;8.15;4.60;;;19.10;73.80;;;;;;5095672;28;20048;-73
2021/06/30 02:56:02;;;;;;;8.60;4.82;;;19.10;73.80;;;;;;5095772;28;20114;-72
2021/06/30 02:58:29;;;;;;;6.38;4.95;;;19.10;73.80;;;;;;5083708;28;20059;-73
2021/06/30 03:00:55;;;;;;;10.55;5.15;;;19.10;73.90;;;;;;5075254;28;20044;-74
2021/06/30 03:03:21;;;;;;;8.40;4.82;;;19.10;73.80;;;;;;5075879;28;20438;-73
2021/06/30 03:05:46;;;;;;;7.57;4.70;;;19.10;74.00;;;;;;5075338;28;20110;-73
2021/06/30 03:08:13;;;;;;;5.78;4.40;;;19.10;74.00;;;;;;5075208;28;20044;-72
2021/06/30 03:10:39;;;;;;;7.97;5.30;;;19.10;74.00;;;;;;5074804;28;20121;-73
2021/06/30 03:13:04;;;;;;;6.60;4.43;;;19.10;73.90;;;;;;5075792;28;20086;-73
2021/06/30 03:15:31;;;;;;;7.85;4.70;;;19.10;74.00;;;;;;5075361;28;20048;-72
2021/06/30 03:17:57;;;;;;;8.15;4.68;;;19.10;73.90;;;;;;5080686;28;20043;-73
2021/06/30 03:20:23;;;;;;;10.13;4.63;;;19.00;73.70;;;;;;5095417;28;20127;-73
2021/06/30 03:22:49;;;;;;;6.55;4.70;;;19.00;73.90;;;;;;5096071;28;20071;-73
2021/06/30 03:25:15;;;;;;;5.82;4.05;;;19.00;73.90;;;;;;5095366;28;20047;-74
2021/06/30 03:27:42;;;;;;;7.03;4.38;;;19.00;73.80;;;;;;5095017;28;20043;-73
2021/06/30 03:30:09;;;;;;;9.25;5.38;;;19.00;73.90;;;;;;5095354;28;20044;-73
2021/06/30 03:32:36;;;;;;;7.28;4.60;;;19.00;73.90;;;;;;5095761;28;20040;-72
2021/06/30 03:35:04;;;;;;;5.22;3.88;;;19.00;73.90;;;;;;5094752;28;20351;-72
2021/06/30 03:37:30;;;;;;;8.57;5.05;;;19.00;73.90;;;;;;5095091;28;20119;-72
2021/06/30 03:39:56;;;;;;;6.85;4.45;;;19.00;73.90;;;;;;5094641;28;20370;-73
2021/06/30 03:42:22;;;;;;;6.47;4.15;;;19.00;73.80;;;;;;5095887;28;20189;-72
2021/06/30 03:44:48;;;;;;;5.60;3.80;;;19.00;73.90;;;;;;5099281;28;20137;-72
2021/06/30 03:47:14;;;;;;;8.75;4.43;;;19.00;73.90;;;;;;5098191;28;20454;-73
2021/06/30 03:49:40;;;;;;;6.93;4.70;;;19.00;73.90;;;;;;5098949;28;20447;-71
2021/06/30 03:52:06;;;;;;;7.85;4.72;;;19.00;73.90;;;;;;5098420;28;20475;-72
2021/06/30 03:54:33;;;;;;;6.05;4.10;;;19.00;74.00;;;;;;5098746;28;20048;-73
2021/06/30 03:56:58;;;;;;;11.27;4.47;;;19.00;74.00;;;;;;5099738;28;20530;-72
2021/06/30 03:59:24;;;;;;;7.63;4.88;;;19.00;74.00;;;;;;5087228;28;20119;-71
2021/06/30 04:01:51;;;;;;;10.18;4.90;;;19.10;74.20;;;;;;5094816;28;20069;-72
2021/06/30 04:04:20;;;;;;;9.23;4.75;;;19.10;74.20;;;;;;5099041;28;20040;-73
2021/06/30 04:06:46;;;;;;;12.60;6.18;;;19.10;74.20;;;;;;5098639;28;20060;-72
2021/06/30 04:09:14;;;;;;;10.48;5.72;;;19.20;74.30;;;;;;5097881;28;20143;-72
2021/06/30 04:11:41;;;;;;;10.23;5.35;;;19.20;74.10;;;;;;5098764;28;20124;-72
2021/06/30 04:14:08;;;;;;;9.70;5.13;;;19.20;73.80;;;;;;5098643;28;20451;-70
2021/06/30 04:16:33;;;;;;;11.77;4.95;;;19.20;73.50;;;;;;5097020;28;20044;-71
2021/06/30 04:18:59;;;;;;;12.38;5.20;;;19.20;73.30;;;;;;5081045;28;20118;-74
2021/06/30 04:21:25;;;;;;;9.38;5.32;;;19.10;73.00;;;;;;5094134;28;20340;-73
2021/06/30 04:23:53;;;;;;;13.43;4.93;;;19.10;72.90;;;;;;5078449;28;20056;-72
2021/06/30 04:26:20;;;;;;;12.93;5.03;;;19.10;73.00;;;;;;5078099;28;20040;-71
2021/06/30 04:28:47;;;;;;;10.55;5.60;;;19.10;73.00;;;;;;5078093;28;20052;-71
2021/06/30 04:31:13;;;;;;;12.55;5.43;;;19.10;72.90;;;;;;5087147;28;20509;-71
2021/06/30 04:33:39;;;;;;;10.38;6.25;;;19.10;72.80;;;;;;5098504;28;20040;-72
2021/06/30 04:36:05;;;;;;;9.70;5.45;;;19.10;72.90;;;;;;5078597;28;20329;-71
2021/06/30 04:38:31;;;;;;;10.50;5.50;;;19.10;72.80;;;;;;5077822;28;20059;-74
2021/06/30 04:40:57;;;;;;;10.07;5.90;;;19.10;72.50;;;;;;5077785;28;20454;-74
2021/06/30 04:43:23;;;;;;;10.30;5.60;;;19.10;72.60;;;;;;5077754;28;20044;-74
2021/06/30 04:45:49;;;;;;;10.80;5.88;;;19.10;72.30;;;;;;5077947;28;20067;-71
2021/06/30 04:48:15;;;;;;;10.98;6.25;;;19.10;72.40;;;;;;5077802;28;20090;-70
2021/06/30 04:50:42;;;;;;;8.50;5.75;;;19.00;72.30;;;;;;5079457;28;20418;-70
2021/06/30 04:53:08;;;;;;;15.55;5.80;;;19.00;72.30;;;;;;5077250;28;20105;-70
2021/06/30 04:55:33;;;;;;;11.43;4.85;;;19.00;72.30;;;;;;5076733;28;20389;-70
2021/06/30 04:57:59;;;;;;;8.32;4.95;;;19.00;72.20;;;;;;5077247;28;20043;-71
2021/06/30 05:00:25;;;;;;;10.52;5.07;;;19.00;72.10;;;;;;5077650;28;20052;-71
2021/06/30 05:02:51;;;;;;;9.90;5.10;;;18.90;72.10;;;;;;5077703;28;20470;-71
2021/06/30 05:05:17;;;;;;;10.07;4.72;;;19.00;72.10;;;;;;5077695;28;20076;-71
2021/06/30 05:07:43;;;;;;;8.98;4.65;;;18.90;71.90;;;;;;5077355;28;20040;-71
2021/06/30 05:10:09;;;;;;;9.52;4.88;;;18.90;71.90;;;;;;5078086;28;20132;-73
2021/06/30 05:12:35;;;;;;;8.40;4.93;;;18.90;71.80;;;;;;5091026;28;20052;-71
2021/06/30 05:15:02;;;;;;;9.10;4.90;;;18.90;71.80;;;;;;5097544;28;20055;-71
2021/06/30 05:17:27;;;;;;;9.48;5.72;;;18.90;72.50;;;;;;5097735;28;20044;-71
2021/06/30 05:19:53;;;;;;;7.90;5.07;;;18.90;71.90;;;;;;5097447;28;20059;-72
2021/06/30 05:22:19;;;;;;;10.65;4.95;;;18.90;72.00;;;;;;5097770;28;20050;-72
2021/06/30 05:24:45;;;;;;;10.00;4.45;;;18.90;72.10;;;;;;5096640;28;20447;-70
2021/06/30 05:27:11;;;;;;;9.73;5.05;;;18.90;72.20;;;;;;5087327;28;20048;-70
2021/06/30 05:29:36;;;;;;;8.18;4.45;;;18.90;72.30;;;;;;5076940;28;20459;-71
2021/06/30 05:32:02;;;;;;;13.65;5.70;;;18.90;72.40;;;;;;5077185;28;20459;-71
2021/06/30 05:34:28;;;;;;;8.13;4.70;;;18.90;72.60;;;;;;5076982;28;20068;-71
2021/06/30 05:36:54;;;;;;;11.55;4.50;;;18.90;72.60;;;;;;5076580;28;20087;-70
2021/06/30 05:39:21;;;;;;;10.80;4.35;;;18.90;72.70;;;;;;5076661;28;20045;-71
2021/06/30 05:41:48;;;;;;;6.80;3.90;;;19.00;72.80;;;;;;5076505;28;20432;-71
2021/06/30 05:44:15;;;;;;;9.60;4.90;;;19.00;72.80;;;;;;5076636;28;20037;-71
2021/06/30 05:46:43;;;;;;;10.70;4.75;;;19.00;72.90;;;;;;5082167;28;20127;-71
2021/06/30 05:49:11;;;;;;;10.52;4.72;;;19.00;72.90;;;;;;5097387;28;20067;-71
2021/06/30 05:51:38;;;;;;;7.28;4.28;;;19.00;72.90;;;;;;5096063;28;20405;-71
2021/06/30 05:54:04;;;;;;;7.90;4.03;;;19.00;73.00;;;;;;5096857;28;20460;-72
2021/06/30 05:56:30;;;;;;;5.90;4.10;;;19.00;73.10;;;;;;5096586;28;20039;-71
2021/06/30 05:58:56;;;;;;;10.68;4.75;;;19.10;73.30;;;;;;5097058;28;20040;-74
2021/06/30 06:01:22;;;;;;;9.25;4.72;;;19.10;73.30;;;;;;5112400;28;20124;-71
2021/06/30 06:03:48;;;;;;;9.82;4.43;;;19.10;73.40;;;;;;5096653;28;20094;-72
2021/06/30 06:06:14;;;;;;;8.38;4.25;;;19.00;73.40;;;;;;5095533;28;20040;-72
2021/06/30 06:08:41;;;;;;;8.45;4.43;;;19.10;73.50;;;;;;5075659;28;20076;-72
2021/06/30 06:11:12;;;;;;;7.07;4.05;;;19.10;73.40;;;;;;5076159;28;20190;-73
2021/06/30 06:13:41;;;;;;;6.47;3.85;;;19.10;73.60;;;;;;5076213;28;20041;-72
2021/06/30 06:16:12;;;;;;;12.80;4.60;;;19.10;73.60;;;;;;5094602;28;20164;-72
2021/06/30 06:18:38;;;;;;;17.40;5.22;;;19.10;73.60;;;;;;5095891;28;20119;-71
2021/06/30 06:21:04;;;;;;;13.85;4.80;;;19.10;73.60;;;;;;5095248;28;20432;-71
2021/06/30 06:23:30;;;;;;;11.15;4.40;;;19.10;73.70;;;;;;5096783;28;20036;-71
2021/06/30 06:25:56;;;;;;;12.07;4.38;;;19.10;73.80;;;;;;5096131;28;20066;-72
2021/06/30 06:28:22;;;;;;;13.88;3.90;;;19.10;73.70;;;;;;5096033;28;20040;-74
2021/06/30 06:30:49;;;;;;;7.20;3.63;;;19.10;73.70;;;;;;5076088;28;20106;-72
2021/06/30 06:33:18;;;;;;;10.10;4.38;;;19.10;73.80;;;;;;5075497;28;20047;-71
2021/06/30 06:35:47;;;;;;;9.07;3.55;;;19.10;73.70;;;;;;5075610;28;20070;-70
2021/06/30 06:38:14;;;;;;;7.47;3.80;;;19.10;73.70;;;;;;5086999;28;20040;-71
2021/06/30 06:40:40;;;;;;;9.80;4.35;;;19.10;73.70;;;;;;5096600;28;20050;-72
2021/06/30 06:43:10;;;;;;;7.93;3.72;;;19.10;73.60;;;;;;5095962;28;20438;-73
2021/06/30 06:45:36;;;;;;;8.27;4.13;;;19.10;73.60;;;;;;5078229;28;20059;-72
2021/06/30 06:48:03;;;;;;;7.05;3.83;;;19.10;73.60;;;;;;5075696;28;20049;-72
2021/06/30 06:50:29;;;;;;;9.25;3.50;;;19.10;73.60;;;;;;5075585;28;20044;-71
2021/06/30 06:52:55;;;;;;;7.35;3.60;;;19.10;73.60;;;;;;5075239;28;20072;-71
2021/06/30 06:55:22;;;;;;;7.38;4.10;;;19.10;73.50;;;;;;5075377;28;20083;-72
2021/06/30 06:57:48;;;;;;;10.27;3.92;;;19.10;73.50;;;;;;5075304;28;20055;-73
2021/06/30 07:00:15;;;;;;;6.85;3.60;;;19.10;73.50;;;;;;5074283;28;20048;-72
2021/06/30 07:02:41;;;;;;;9.13;3.50;;;19.10;73.50;;;;;;5075070;28;20055;-71
2021/06/30 07:05:07;;;;;;;7.30;3.38;;;19.20;73.60;;;;;;5085612;28;20040;-72
2021/06/30 07:07:41;;;;;;;6.15;3.50;;;19.20;73.50;;;;;;5095284;28;20044;-71
2021/06/30 07:10:06;;;;;;;;;;;19.10;73.40;;;;;;5095416;28;20052;-71
2021/06/30 07:12:33;;;;;;;6.75;3.50;;;19.20;73.70;;;;;;5087225;28;20020;-73
2021/06/30 07:15:01;;;;;;;6.68;3.45;;;19.10;73.50;;;;;;5074760;28;20120;-70
2021/06/30 07:17:27;;;;;;;7.78;3.60;;;19.10;73.40;;;;;;5074525;28;20098;-71
2021/06/30 07:19:53;;;;;;;6.90;3.85;;;19.20;73.20;;;;;;5075164;28;20110;-70
2021/06/30 07:22:19;;;;;;;6.95;3.60;;;19.20;72.60;;;;;;5085042;28;20044;-71
2021/06/30 07:24:45;;;;;;;8.60;3.20;;;19.10;72.50;;;;;;5095486;28;20066;-70
2021/06/30 07:27:11;;;;;;;10.15;4.07;;;19.10;72.70;;;;;;5095139;28;20123;-71
2021/06/30 07:29:37;;;;;;;7.45;3.22;;;19.10;72.80;;;;;;5094833;28;20131;-71
2021/06/30 07:32:03;;;;;;;7.00;3.65;;;19.10;72.90;;;;;;5095043;28;20443;-70
2021/06/30 07:34:29;;;;;;;9.77;3.80;;;19.10;73.00;;;;;;5095034;28;20346;-71
2021/06/30 07:36:55;;;;;;;6.45;3.28;;;19.10;73.00;;;;;;5095291;28;20042;-71
2021/06/30 07:39:23;;;;;;;6.60;3.35;;;19.20;73.10;;;;;;5095264;28;20052;-71
2021/06/30 07:41:49;;;;;;;9.55;3.30;;;19.20;73.20;;;;;;5093339;28;20458;-71
2021/06/30 07:44:15;;;;;;;7.78;3.55;;;19.20;73.10;;;;;;5095124;28;20040;-71
2021/06/30 07:46:41;;;;;;;10.52;3.42;;;19.20;72.90;;;;;;5094814;28;20459;-71
2021/06/30 07:49:07;;;;;;;8.38;3.75;;;19.20;72.70;;;;;;5093478;28;20052;-72
2021/06/30 07:51:33;;;;;;;9.90;4.13;;;19.20;72.40;;;;;;5095138;28;20051;-71
2021/06/30 07:53:59;;;;;;;9.20;3.53;;;19.10;72.20;;;;;;5095775;28;20075;-71
2021/06/30 07:56:34;;;;;;;7.70;3.60;;;19.10;72.20;;;;;;5086366;28;20118;-71
2021/06/30 07:59:18;;;;;;;8.48;3.90;;;19.10;72.10;;;;;;5074352;28;20440;-71
2021/06/30 08:01:43;;;;;;;;;;;19.10;72.10;;;;;;5079349;28;20043;-71
2021/06/30 08:04:09;;;;;;;7.15;3.58;;;19.00;72.10;;;;;;5095055;28;19920;-70
2021/06/30 08:06:36;;;;;;;9.80;3.45;;;19.00;72.10;;;;;;5095112;28;20127;-72
2021/06/30 08:09:05;;;;;;;13.10;4.72;;;19.00;72.10;;;;;;5095130;28;20151;-71
2021/06/30 08:11:31;;;;;;;7.70;3.70;;;19.00;72.10;;;;;;5094855;28;20122;-71
2021/06/30 08:13:57;;;;;;;11.30;3.97;;;19.00;72.00;;;;;;5094798;28;20044;-71
2021/06/30 08:16:23;;;;;;;5.70;3.30;;;19.00;72.00;;;;;;5088710;28;20102;-71
2021/06/30 08:18:49;;;;;;;7.95;3.38;;;19.00;72.00;;;;;;5074705;28;20455;-71
2021/06/30 08:21:21;;;;;;;9.45;3.70;;;19.00;72.00;;;;;;5074656;28;20040;-71
2021/06/30 08:23:46;;;;;;;8.55;4.10;;;19.00;72.10;;;;;;5076252;28;20058;-71
2021/06/30 08:26:12;;;;;;;10.38;4.28;;;19.00;72.10;;;;;;5094976;28;20143;-72
2021/06/30 08:28:39;;;;;;;9.15;4.10;;;19.00;72.10;;;;;;5096384;28;20043;-71
2021/06/30 08:31:05;;;;;;;10.85;3.80;;;19.00;72.20;;;;;;5094921;28;20041;-71
2021/06/30 08:33:31;;;;;;;6.18;3.60;;;19.00;72.10;;;;;;5078274;28;20040;-72
2021/06/30 08:35:57;;;;;;;7.93;3.80;;;19.00;72.10;;;;;;5078165;28;20383;-71
2021/06/30 08:38:23;;;;;;;8.70;3.72;;;19.00;72.00;;;;;;5077840;28;20049;-71
2021/06/30 08:40:56;;;;;;;9.00;3.90;;;19.00;72.00;;;;;;5077906;28;20124;-71
2021/06/30 08:43:23;;;;;;;7.83;3.97;;;19.00;72.00;;;;;;5077876;28;20493;-72
2021/06/30 08:45:49;;;;;;;7.38;3.47;;;19.00;72.10;;;;;;5077874;28;20455;-72
2021/06/30 08:48:16;;;;;;;8.98;3.85;;;19.00;72.20;;;;;;5078964;28;20036;-72
2021/06/30 08:50:46;;;;;;;7.68;3.70;;;19.00;72.30;;;;;;5077867;28;20052;-70
2021/06/30 08:53:14;;;;;;;7.20;3.92;;;19.00;72.20;;;;;;5077522;28;20059;-70
2021/06/30 08:55:46;;;;;;;8.25;3.80;;;19.00;72.30;;;;;;5077998;28;20045;-71
2021/06/30 08:58:13;;;;;;;7.95;3.65;;;19.00;72.30;;;;;;5077624;28;20056;-71
2021/06/30 09:00:41;;;;;;;8.15;3.78;;;19.00;72.30;;;;;;5093423;28;20060;-71
2021/06/30 09:03:14;;;;;;;8.57;3.92;;;19.00;72.30;;;;;;5078577;28;20040;-70
2021/06/30 09:06:11;;;;;;;8.02;3.33;;;19.00;72.30;;;;;;5077416;28;20036;-70
2021/06/30 09:08:44;;;;;;;9.13;4.15;;;18.90;72.20;;;;;;5077700;28;20080;-70
2021/06/30 09:11:14;;;;;;;9.43;3.90;;;19.00;72.30;;;;;;5077416;28;20044;-71
2021/06/30 09:13:40;;;;;;;8.65;3.85;;;19.00;72.30;;;;;;5077466;28;20045;-72
2021/06/30 09:16:06;;;;;;;8.98;3.72;;;19.00;72.20;;;;;;5077331;28;20138;-70
2021/06/30 09:18:35;;;;;;;6.47;3.88;;;18.90;72.20;;;;;;5077392;28;20076;-71
2021/06/30 09:21:22;;;;;;;8.43;4.85;;;19.00;72.20;;;;;;5077107;28;20448;-71
2021/06/30 09:23:57;;;;;;;11.02;4.03;;;18.90;72.00;;;;;;5077283;28;20044;-70
2021/06/30 09:26:23;;;;;;;8.15;3.80;;;18.90;71.90;;;;;;5076934;28;20163;-72
2021/06/30 09:28:48;;;;;;;8.23;3.95;;;18.90;72.00;;;;;;5077446;28;20123;-72
2021/06/30 09:31:15;;;;;;;8.93;4.07;;;18.90;72.00;;;;;;5076842;28;20551;-71
2021/06/30 09:33:59;;;;;;;8.65;4.22;;;18.90;71.90;;;;;;5076899;28;20086;-71
2021/06/30 09:36:46;;;;;;;8.48;4.20;;;18.90;71.90;;;;;;5077013;28;20046;-71
2021/06/30 09:39:13;;;;;;;8.38;4.07;;;18.90;72.00;;;;;;5077103;28;20044;-71
2021/06/30 09:41:43;;;;;;;8.55;4.60;;;18.90;72.00;;;;;;5078005;28;20474;-72
2021/06/30 09:44:14;;;;;;;8.25;4.50;;;18.90;72.00;;;;;;5097611;28;20055;-71
2021/06/30 09:46:43;;;;;;;7.40;4.18;;;18.90;72.60;;;;;;5096998;28;20123;-71
2021/06/30 09:49:13;;;;;;;10.80;4.60;;;18.90;72.00;;;;;;5093682;28;20032;-70
2021/06/30 09:51:43;;;;;;;8.85;4.35;;;18.90;72.10;;;;;;5076038;28;20386;-72
2021/06/30 09:54:14;;;;;;;8.80;4.32;;;18.90;72.20;;;;;;5076475;28;20125;-69
2021/06/30 09:56:54;;;;;;;9.75;4.40;;;18.90;72.20;;;;;;5076558;28;20055;-69
2021/06/30 09:59:30;;;;;;;10.25;4.45;;;18.80;72.30;;;;;;5075020;28;20147;-71
2021/06/30 10:02:11;;;;;;;8.70;3.97;;;18.90;72.50;;;;;;5077133;28;20123;-70
2021/06/30 10:04:40;;;;;;;7.80;4.43;;;18.90;72.60;;;;;;5076234;28;20463;-71
2021/06/30 10:07:13;;;;;;;10.45;5.10;;;18.80;72.80;;;;;;5076328;28;20347;-70
2021/06/30 10:09:56;;;;;;;11.77;4.72;;;18.90;72.80;;;;;;5075959;28;20371;-71
2021/06/30 10:12:26;;;;;;;10.95;4.93;;;18.90;72.80;;;;;;5093207;28;20182;-70
2021/06/30 10:14:52;;;;;;;11.32;4.75;;;18.80;72.90;;;;;;5096328;28;20036;-70
2021/06/30 10:17:20;;;;;;;9.70;5.07;;;18.80;73.10;;;;;;5090332;28;20123;-70
2021/06/30 10:19:48;;;;;;;11.02;4.78;;;18.80;73.10;;;;;;5085596;28;20105;-70
2021/06/30 10:22:14;;;;;;;10.15;4.63;;;18.90;73.20;;;;;;5096423;28;20123;-70
2021/06/30 10:24:40;;;;;;;9.32;4.53;;;18.90;73.20;;;;;;5096204;28;20101;-70
2021/06/30 10:27:08;;;;;;;9.20;4.28;;;18.90;73.20;;;;;;5096028;28;20040;-70
2021/06/30 10:29:37;;;;;;;7.93;4.30;;;19.00;73.20;;;;;;5095672;28;20065;-70
2021/06/30 10:32:11;;;;;;;11.00;4.78;;;19.00;73.20;;;;;;5096049;28;20051;-70
2021/06/30 10:34:39;;;;;;;;;;;19.00;73.10;;;;;;5096620;28;20108;-70
2021/06/30 10:37:23;;;;;;;9.27;4.07;;;19.00;73.00;;;;;;5094121;28;19920;-70
2021/06/30 10:39:54;;;;;;;8.65;4.30;;;19.00;73.10;;;;;;5095813;28;20044;-70
2021/06/30 10:42:43;;;;;;;8.27;4.38;;;19.00;73.00;;;;;;5096181;28;20067;-70
2021/06/30 10:45:15;;;;;;;6.20;3.55;;;19.10;73.10;;;;;;5095847;28;20048;-70
2021/06/30 10:47:45;;;;;;;6.60;4.32;;;19.10;73.00;;;;;;5095473;28;20080;-70
2021/06/30 10:50:17;;;;;;;6.85;4.22;;;19.10;73.00;;;;;;5095716;28;20502;-70
2021/06/30 10:52:54;;;;;;;6.70;3.97;;;19.10;73.00;;;;;;5092171;28;20463;-70
2021/06/30 10:55:53;;;;;;;6.63;4.05;;;19.20;73.00;;;;;;5075507;28;20049;-70
2021/06/30 10:58:21;;;;;;;7.07;3.85;;;19.20;72.90;;;;;;5073336;28;20060;-70
2021/06/30 11:01:00;;;;;;;7.10;4.43;;;19.20;73.00;;;;;;5075551;28;20075;-70
2021/06/30 11:03:29;;;;;;;7.32;3.83;;;19.20;73.00;;;;;;5074371;28;20115;-69
2021/06/30 11:06:13;;;;;;;9.68;4.15;;;19.20;73.00;;;;;;5075235;28;20045;-70
2021/06/30 11:09:08;;;;;;;9.65;4.45;;;19.20;72.90;;;;;;5074994;28;20056;-70
2021/06/30 11:11:35;;;;;;;5.85;4.00;;;19.20;72.90;;;;;;5075461;28;20056;-70
2021/06/30 11:14:02;;;;;;;6.60;3.90;;;19.20;73.00;;;;;;5094309;28;20107;-70
2021/06/30 11:16:43;;;;;;;6.30;3.92;;;19.20;72.90;;;;;;5095168;28;20069;-71
2021/06/30 11:19:16;;;;;;;5.72;3.67;;;19.20;72.90;;;;;;5095144;28;20126;-70
2021/06/30 11:21:48;;;;;;;6.93;3.85;;;19.20;72.90;;;;;;5095357;28;20051;-71
2021/06/30 11:27:14;;;;;;;5.78;3.83;;;19.20;72.90;;;;;;5082114;28;20040;-70
2021/06/30 11:30:01;;;;;;;5.45;3.42;;;19.20;72.90;;;;;;5074904;28;20051;-71
2021/06/30 11:32:35;;;;;;;5.15;3.35;;;19.20;72.90;;;;;;5075146;28;20040;-70
2021/06/30 11:35:26;;;;;;;6.07;3.53;;;19.30;73.00;;;;;;5075747;28;20348;-70
2021/06/30 11:38:10;;;;;;;5.28;3.85;;;19.20;72.90;;;;;;5075118;28;20116;-71
2021/06/30 11:40:40;;;;;;;6.45;4.30;;;19.20;72.90;;;;;;5080310;28;20105;-71
2021/06/30 11:43:12;;;;;;;6.18;3.67;;;19.20;73.00;;;;;;5081373;28;20055;-72
2021/06/30 11:45:38;;;;;;;7.22;4.18;;;19.20;73.00;;;;;;5091527;28;20052;-73
2021/06/30 11:48:12;;;;;;;6.75;4.10;;;19.20;73.00;;;;;;5093921;28;20055;-71
2021/06/30 11:50:53;;;;;;;4.63;3.53;;;19.30;73.20;;;;;;5095528;28;20055;-73
2021/06/30 11:53:39;;;;;;;6.45;3.78;;;19.20;73.20;;;;;;5095185;28;20478;-73
2021/06/30 11:56:07;;;;;;;7.75;3.97;;;19.30;73.40;;;;;;5093415;28;20048;-70
2021/06/30 11:58:45;;;;;;;7.45;4.30;;;19.30;73.40;;;;;;5094396;28;20051;-70
2021/06/30 12:01:34;;;;;;;6.80;4.07;;;19.30;73.50;;;;;;5094920;28;20044;-72
2021/06/30 12:04:09;;;;;;;9.63;4.20;;;19.30;73.60;;;;;;5088728;28;20070;-71
2021/06/30 12:06:35;;;;;;;7.07;3.85;;;19.30;73.60;;;;;;5082538;28;20044;-73
2021/06/30 12:09:11;;;;;;;9.57;4.00;;;19.30;73.70;;;;;;5078111;28;20063;-71
2021/06/30 12:11:40;;;;;;;6.05;3.67;;;19.30;73.80;;;;;;5081065;28;20235;-72
2021/06/30 12:14:08;;;;;;;7.53;3.78;;;19.30;73.80;;;;;;5097594;28;20129;-73
2021/06/30 12:16:41;;;;;;;8.40;3.97;;;19.30;73.70;;;;;;5093354;28;20048;-71
2021/06/30 12:19:11;;;;;;;7.40;4.20;;;19.30;74.00;;;;;;5079083;28;20068;-70
2021/06/30 12:21:39;;;;;;;8.10;3.85;;;19.30;74.00;;;;;;5078602;28;20365;-73
2021/06/30 12:24:16;;;;;;;10.13;4.13;;;19.30;74.00;;;;;;5078319;28;20090;-71
2021/06/30 12:26:56;;;;;;;6.43;3.80;;;19.30;74.00;;;;;;5079153;28;20127;-77
2021/06/30 12:29:21;;;;;;;8.20;4.15;;;19.40;74.10;;;;;;5083817;28;20056;-73
2021/06/30 12:31:48;;;;;;;7.70;4.25;;;19.40;74.10;;;;;;5089658;28;20051;-76
2021/06/30 12:34:13;;;;;;;7.85;4.53;;;19.40;74.10;;;;;;5090296;28;20040;-73
2021/06/30 12:36:42;;;;;;;10.02;4.90;;;19.40;74.20;;;;;;5093796;28;20058;-73
2021/06/30 12:39:31;;;;;;;8.70;4.55;;;19.40;74.30;;;;;;5092457;28;20064;-73
2021/06/30 12:42:03;;;;;;;9.35;4.38;;;19.40;74.50;;;;;;5088880;28;20063;-73
2021/06/30 12:44:30;;;;;;;11.57;4.10;;;19.40;74.50;;;;;;5098027;28;20056;-72
2021/06/30 12:47:11;;;;;;;9.57;4.30;;;19.40;74.60;;;;;;5097391;28;20050;-73
2021/06/30 12:49:40;;;;;;;7.50;4.38;;;19.40;74.70;;;;;;5097884;28;20127;-73
2021/06/30 12:52:21;;;;;;;10.63;4.57;;;19.40;74.80;;;;;;5097696;28;20110;-73
2021/06/30 12:55:12;;;;;;;12.18;4.80;;;19.40;74.90;;;;;;5093952;28;20036;-73
2021/06/30 12:57:57;;;;;;;15.85;5.05;;;19.40;75.00;;;;;;5090544;28;20101;-73